Time;durP1;ratioP1;P1;durP2;ratioP2;P2;SDS_P1;SDS_P2;PMS_P1;PMS_P2;Temp;Humidity;BMP_temperature;BMP_pressure;BME280_temperature;BME280_humidity;BME280_pressure;Samples;Min_cycle;Max_cycle;Signal;HPM_P1;HPM_P2
2022/05/06 00:02:18;;;;;;;17.48;12.60;;;13.20;58.30;;;;;;4993261;28;20474;-85
2022/05/06 00:04:44;;;;;;;18.25;14.00;;;13.10;58.30;;;;;;4994186;28;20046;-84
2022/05/06 00:07:13;;;;;;;18.35;12.88;;;13.10;58.30;;;;;;4994388;28;20046;-85
2022/05/06 00:09:40;;;;;;;15.60;11.73;;;13.10;58.40;;;;;;4994200;28;20524;-84
2022/05/06 00:12:08;;;;;;;12.25;9.75;;;13.10;58.50;;;;;;4997943;28;20034;-84
2022/05/06 00:14:35;;;;;;;12.82;9.85;;;13.00;58.40;;;;;;4997669;28;20075;-84
2022/05/06 00:17:02;;;;;;;12.35;9.70;;;13.00;58.50;;;;;;4997426;28;20389;-84
2022/05/06 00:19:28;;;;;;;13.80;9.95;;;13.00;58.50;;;;;;4998133;28;20058;-84
2022/05/06 00:21:53;;;;;;;14.30;10.25;;;12.90;58.40;;;;;;4998125;28;20034;-84
2022/05/06 00:24:19;;;;;;;15.15;11.50;;;12.90;58.50;;;;;;4996708;28;20080;-84
2022/05/06 00:26:44;;;;;;;11.52;9.23;;;12.80;58.60;;;;;;4995633;28;20042;-84
2022/05/06 00:29:10;;;;;;;15.95;10.88;;;12.80;58.70;;;;;;4997855;28;20132;-84
2022/05/06 00:31:36;;;;;;;14.45;11.43;;;12.80;58.80;;;;;;4997547;28;20046;-84
2022/05/06 00:34:01;;;;;;;16.05;12.32;;;12.80;58.90;;;;;;4997641;28;20050;-84
2022/05/06 00:36:27;;;;;;;16.85;12.15;;;12.70;58.90;;;;;;4995256;28;20061;-84
2022/05/06 00:38:54;;;;;;;15.82;11.93;;;12.70;59.00;;;;;;4997179;28;20042;-84
2022/05/06 00:41:20;;;;;;;15.90;12.52;;;12.70;59.00;;;;;;4995553;28;20074;-84
2022/05/06 00:43:46;;;;;;;17.77;12.68;;;12.70;59.10;;;;;;4997134;28;20089;-85
2022/05/06 00:46:15;;;;;;;17.33;12.70;;;12.70;59.10;;;;;;4996747;28;20057;-83
2022/05/06 00:48:48;;;;;;;16.10;12.88;;;12.60;59.20;;;;;;4995740;28;20047;-84
2022/05/06 00:51:17;;;;;;;15.40;11.85;;;12.60;59.30;;;;;;4997445;28;20117;-84
2022/05/06 00:53:43;;;;;;;18.27;12.95;;;12.60;59.30;;;;;;4997477;28;20481;-84
2022/05/06 00:56:10;;;;;;;17.45;13.10;;;12.60;59.30;;;;;;4996023;28;20046;-84
2022/05/06 00:58:36;;;;;;;20.23;14.50;;;12.60;59.30;;;;;;4996236;28;20043;-84
2022/05/06 01:01:03;;;;;;;17.85;13.60;;;12.60;59.30;;;;;;4997361;28;20049;-84
2022/05/06 01:03:30;;;;;;;19.42;14.35;;;12.60;59.30;;;;;;4995347;28;20152;-84
2022/05/06 01:05:56;;;;;;;16.42;13.20;;;12.60;59.40;;;;;;4995626;28;20054;-84
2022/05/06 01:08:21;;;;;;;16.90;12.65;;;12.60;59.40;;;;;;4995844;28;20150;-84
2022/05/06 01:10:48;;;;;;;14.43;11.35;;;12.50;59.30;;;;;;4995858;28;20050;-84
2022/05/06 01:13:13;;;;;;;17.75;12.50;;;12.50;59.20;;;;;;4996229;28;20077;-84
2022/05/06 01:15:39;;;;;;;16.02;11.88;;;12.50;59.30;;;;;;4996562;28;20109;-84
2022/05/06 01:18:05;;;;;;;15.45;11.82;;;12.40;59.20;;;;;;4996883;28;20557;-84
2022/05/06 01:20:35;;;;;;;17.70;12.63;;;12.40;59.20;;;;;;4995564;28;20074;-84
2022/05/06 01:23:01;;;;;;;16.80;12.13;;;12.40;59.30;;;;;;4995803;28;20386;-84
2022/05/06 01:25:27;;;;;;;15.73;12.13;;;12.30;59.20;;;;;;4996711;28;20065;-84
2022/05/06 01:28:02;;;;;;;16.90;12.73;;;12.40;59.30;;;;;;4996168;28;20042;-83
2022/05/06 01:30:48;;;;;;;16.77;12.88;;;12.30;59.30;;;;;;4996365;28;20089;-84
2022/05/06 01:33:16;;;;;;;15.57;12.15;;;12.30;59.30;;;;;;4995573;28;20089;-83
2022/05/06 01:35:43;;;;;;;16.10;12.00;;;12.30;59.30;;;;;;4994999;28;20054;-84
2022/05/06 01:38:12;;;;;;;17.92;13.02;;;12.20;59.30;;;;;;4995425;28;20049;-84
2022/05/06 01:40:52;;;;;;;16.63;12.38;;;12.20;59.30;;;;;;4996504;28;20477;-83
2022/05/06 01:43:18;;;;;;;17.42;12.90;;;12.20;59.30;;;;;;4996422;28;20050;-84
2022/05/06 01:45:47;;;;;;;17.30;12.88;;;12.20;59.30;;;;;;4995914;28;20105;-84
2022/05/06 01:48:16;;;;;;;16.90;13.05;;;12.20;59.30;;;;;;4995612;28;20161;-83
2022/05/06 01:50:42;;;;;;;16.27;12.07;;;12.20;59.30;;;;;;4994833;28;20050;-83
2022/05/06 01:53:09;;;;;;;16.80;12.48;;;12.20;59.30;;;;;;4995648;28;20536;-84
2022/05/06 01:55:36;;;;;;;17.60;12.38;;;12.10;59.30;;;;;;4996671;28;20385;-83
2022/05/06 01:58:04;;;;;;;14.82;12.00;;;12.20;59.20;;;;;;4994483;28;20042;-83
2022/05/06 02:00:29;;;;;;;13.85;11.00;;;12.10;59.20;;;;;;4994134;28;20057;-84
2022/05/06 02:02:56;;;;;;;16.25;11.48;;;12.10;59.10;;;;;;4995121;28;20490;-84
2022/05/06 02:05:23;;;;;;;17.05;11.68;;;12.10;59.00;;;;;;4991433;28;20526;-84
2022/05/06 02:07:51;;;;;;;15.65;11.13;;;12.00;58.90;;;;;;4990615;28;20406;-84
2022/05/06 02:10:17;;;;;;;15.75;11.30;;;12.00;58.90;;;;;;4994357;28;20060;-84
2022/05/06 02:12:45;;;;;;;15.35;11.43;;;12.00;58.90;;;;;;4995858;28;20050;-84
2022/05/06 02:15:11;;;;;;;13.70;10.48;;;12.00;58.80;;;;;;4995751;28;20046;-85
2022/05/06 02:17:40;;;;;;;12.85;9.70;;;12.00;58.80;;;;;;5010180;28;20054;-84
2022/05/06 02:20:08;;;;;;;11.68;9.65;;;12.00;58.80;;;;;;4995947;28;20093;-84
2022/05/06 02:22:35;;;;;;;14.50;10.38;;;11.90;58.70;;;;;;4995226;28;20042;-84
2022/05/06 02:25:02;;;;;;;14.75;9.77;;;12.10;58.80;;;;;;4995416;28;20089;-85
2022/05/06 02:27:28;;;;;;;13.07;10.52;;;11.90;58.80;;;;;;4993992;28;20061;-85
2022/05/06 02:35:22;;;;;;;12.90;9.80;;;11.80;58.80;;;;;;4978892;28;20042;-84
2022/05/06 02:37:48;;;;;;;12.60;9.52;;;11.80;58.80;;;;;;4995053;28;20077;-84
2022/05/06 02:40:13;;;;;;;16.08;10.80;;;11.80;58.90;;;;;;4995205;28;20042;-84
2022/05/06 02:42:39;;;;;;;15.68;11.25;;;11.80;59.00;;;;;;4995759;28;20481;-84
2022/05/06 02:45:05;;;;;;;18.08;12.73;;;11.80;59.00;;;;;;4995259;28;20383;-83
2022/05/06 02:47:31;;;;;;;16.10;11.60;;;11.80;59.10;;;;;;4994779;28;20363;-84
2022/05/06 02:49:56;;;;;;;15.98;11.20;;;11.80;59.20;;;;;;4994609;28;20092;-84
2022/05/06 02:52:23;;;;;;;16.40;11.80;;;11.80;59.30;;;;;;4993920;28;20121;-84
2022/05/06 02:54:49;;;;;;;18.42;13.18;;;11.70;59.40;;;;;;4995003;28;20078;-84
2022/05/06 02:57:15;;;;;;;19.80;13.82;;;11.70;59.60;;;;;;4994925;28;20069;-84
2022/05/06 02:59:40;;;;;;;19.40;12.95;;;11.70;59.70;;;;;;4994420;28;20046;-84
2022/05/06 03:02:07;;;;;;;17.27;12.25;;;11.60;59.80;;;;;;4994791;28;20053;-84
2022/05/06 03:04:33;;;;;;;18.17;13.43;;;11.60;59.80;;;;;;4994726;28;20501;-84
2022/05/06 03:06:59;;;;;;;19.38;13.32;;;11.60;60.00;;;;;;4995187;28;20049;-84
2022/05/06 03:09:26;;;;;;;16.58;12.90;;;11.60;60.10;;;;;;4990377;28;20058;-84
2022/05/06 03:11:52;;;;;;;18.60;13.88;;;11.60;60.30;;;;;;4993775;28;20398;-83
2022/05/06 03:14:18;;;;;;;21.80;14.88;;;11.60;60.40;;;;;;4994840;28;20048;-84
2022/05/06 03:16:43;;;;;;;24.17;15.82;;;11.60;60.60;;;;;;4995316;28;20470;-84
2022/05/06 03:19:10;;;;;;;23.98;16.15;;;11.50;60.70;;;;;;4994234;28;20038;-84
2022/05/06 03:21:36;;;;;;;19.83;14.50;;;11.60;60.80;;;;;;4995369;28;20141;-84
2022/05/06 03:24:01;;;;;;;19.58;14.32;;;11.60;60.80;;;;;;4994616;28;20505;-84
2022/05/06 03:26:27;;;;;;;19.27;15.05;;;11.60;60.90;;;;;;4994995;28;20449;-84
2022/05/06 03:28:56;;;;;;;19.92;15.95;;;11.60;61.00;;;;;;4994275;28;20129;-85
2022/05/06 03:31:22;;;;;;;20.48;15.10;;;11.60;61.10;;;;;;4994998;28;20045;-85
2022/05/06 03:33:49;;;;;;;18.80;13.45;;;11.60;61.20;;;;;;4994577;28;20452;-84
2022/05/06 03:36:15;;;;;;;20.75;15.75;;;11.60;61.30;;;;;;4975943;28;20043;-85
2022/05/06 03:38:40;;;;;;;22.45;16.88;;;11.60;61.40;;;;;;4987611;28;20034;-84
2022/05/06 03:41:06;;;;;;;20.23;16.48;;;11.60;61.50;;;;;;4994733;28;20082;-85
2022/05/06 03:43:32;;;;;;;21.85;16.83;;;11.60;61.60;;;;;;4995025;28;20088;-85
2022/05/06 03:45:57;;;;;;;23.92;17.98;;;11.60;61.80;;;;;;4996820;28;20047;-85
2022/05/06 03:48:24;;;;;;;22.58;16.73;;;11.60;62.00;;;;;;4998621;28;20042;-85
2022/05/06 03:53:38;;;;;;;24.20;17.58;;;11.60;62.20;;;;;;5014038;28;20054;-85
2022/05/06 03:56:05;;;;;;;22.73;16.88;;;11.60;62.20;;;;;;4998347;28;20050;-85
2022/05/06 03:58:32;;;;;;;25.38;18.08;;;11.60;62.40;;;;;;4998577;28;20045;-85
2022/05/06 04:00:58;;;;;;;26.65;18.65;;;11.60;62.50;;;;;;4978662;28;20151;-85
2022/05/06 04:03:23;;;;;;;23.73;17.75;;;11.70;62.70;;;;;;4998183;28;20145;-85
2022/05/06 04:05:49;;;;;;;26.98;19.52;;;11.70;62.80;;;;;;4998629;28;20034;-84
2022/05/06 04:08:15;;;;;;;27.05;18.85;;;11.70;62.90;;;;;;4996403;28;20490;-85
2022/05/06 04:10:40;;;;;;;26.20;18.55;;;11.70;63.00;;;;;;4997627;28;20046;-85
2022/05/06 04:13:06;;;;;;;30.17;19.70;;;11.70;63.10;;;;;;4998483;28;20066;-84
2022/05/06 04:15:35;;;;;;;26.50;18.55;;;11.70;63.20;;;;;;4997935;28;20038;-85
2022/05/06 04:18:03;;;;;;;30.67;20.15;;;11.70;63.40;;;;;;4997214;28;20081;-85
2022/05/06 04:23:32;;;;;;;24.98;17.23;;;11.80;63.50;;;;;;4998267;28;20077;-86
2022/05/06 04:26:01;;;;;;;30.75;20.40;;;11.80;63.50;;;;;;4997423;28;20108;-85
2022/05/06 04:28:28;;;;;;;29.13;20.83;;;11.80;63.70;;;;;;4998537;28;20050;-85
2022/05/06 04:30:54;;;;;;;26.42;18.80;;;11.80;63.90;;;;;;4998711;28;20105;-86
2022/05/06 04:33:21;;;;;;;25.63;18.85;;;11.80;64.00;;;;;;4998856;28;20422;-86
2022/05/06 04:35:47;;;;;;;23.65;17.48;;;11.90;64.00;;;;;;4998335;28;20053;-86
2022/05/06 04:38:14;;;;;;;25.58;17.63;;;11.80;64.30;;;;;;4998492;28;20126;-86
2022/05/06 04:40:42;;;;;;;24.05;17.45;;;11.90;63.90;;;;;;4998992;28;20053;-86
2022/05/06 04:43:09;;;;;;;24.02;16.98;;;11.90;63.90;;;;;;4997016;28;20057;-86
2022/05/06 04:45:38;;;;;;;25.95;18.45;;;11.90;64.00;;;;;;4998258;28;20046;-86
2022/05/06 04:48:06;;;;;;;26.85;19.77;;;11.90;64.20;;;;;;4998689;28;20042;-86
2022/05/06 04:50:41;;;;;;;26.73;19.00;;;11.90;64.20;;;;;;4998435;28;20047;-86
2022/05/06 04:53:09;;;;;;;27.63;19.85;;;11.90;64.50;;;;;;4998417;28;20050;-84
2022/05/06 04:55:39;;;;;;;29.27;21.45;;;12.00;64.70;;;;;;4998158;28;20121;-89
2022/05/06 04:58:06;;;;;;;28.13;19.48;;;12.00;64.90;;;;;;4998014;28;20046;-86
2022/05/06 05:00:32;;;;;;;41.38;24.27;;;12.00;64.90;;;;;;4997982;28;20419;-86
2022/05/06 05:02:59;;;;;;;24.23;18.27;;;12.00;65.20;;;;;;4998643;28;20054;-87
2022/05/06 05:05:25;;;;;;;27.98;19.88;;;12.10;65.20;;;;;;4997274;28;20046;-87
2022/05/06 05:07:51;;;;;;;26.80;18.98;;;12.00;65.20;;;;;;4998559;28;20492;-86
2022/05/06 05:10:17;;;;;;;25.70;18.95;;;12.10;65.40;;;;;;4997648;28;20482;-86
2022/05/06 05:12:43;;;;;;;38.53;22.52;;;12.10;65.50;;;;;;4998693;28;20058;-87
2022/05/06 05:15:10;;;;;;;53.22;26.88;;;12.10;66.30;;;;;;4998690;28;20105;-87
2022/05/06 05:17:36;;;;;;;44.60;25.10;;;12.10;67.10;;;;;;4999155;28;20061;-86
2022/05/06 05:20:02;;;;;;;30.60;22.60;;;12.20;67.80;;;;;;5006312;28;20039;-86
2022/05/06 05:22:28;;;;;;;54.40;26.33;;;12.10;68.20;;;;;;5017759;28;20032;-86
2022/05/06 05:24:54;;;;;;;30.17;22.13;;;12.10;68.70;;;;;;5014897;28;20030;-87
2022/05/06 05:27:20;;;;;;;48.03;27.42;;;12.10;68.90;;;;;;5013748;28;20106;-88
2022/05/06 05:29:46;;;;;;;33.03;23.58;;;12.10;69.30;;;;;;5017376;28;20047;-88
2022/05/06 05:32:12;;;;;;;36.65;25.55;;;12.10;69.50;;;;;;5015975;28;20042;-87
2022/05/06 05:34:40;;;;;;;33.60;24.50;;;12.10;69.50;;;;;;5019354;28;20102;-87
2022/05/06 05:37:06;;;;;;;34.55;24.13;;;12.10;69.70;;;;;;5008169;28;20054;-87
2022/05/06 05:39:31;;;;;;;31.77;21.80;;;12.10;69.70;;;;;;5008673;28;20030;-87
2022/05/06 05:41:57;;;;;;;41.13;28.50;;;12.10;69.50;;;;;;5014388;28;20045;-86
2022/05/06 05:53:16;;;;;;;38.28;26.15;;;12.20;70.40;;;;;;5012635;28;20054;-87
2022/05/06 05:55:41;;;;;;;34.10;23.92;;;12.30;70.00;;;;;;4996469;28;20108;-87
2022/05/06 05:58:07;;;;;;;33.22;23.80;;;12.30;70.00;;;;;;4996430;28;20070;-87
2022/05/06 06:00:33;;;;;;;38.65;24.48;;;12.40;69.90;;;;;;4995875;28;20414;-87
2022/05/06 06:02:59;;;;;;;38.38;25.23;;;12.40;70.10;;;;;;4995868;28;20039;-90
2022/05/06 06:05:24;;;;;;;35.40;23.85;;;12.40;70.60;;;;;;4995083;28;20050;-88
2022/05/06 06:07:50;;;;;;;27.95;20.30;;;12.50;70.90;;;;;;4993225;28;20041;-88
2022/05/06 06:10:16;;;;;;;37.70;24.20;;;12.50;70.80;;;;;;5014392;28;20369;-87
2022/05/06 06:12:41;;;;;;;31.90;22.05;;;12.50;70.80;;;;;;4995898;28;20046;-87
2022/05/06 06:15:07;;;;;;;24.60;17.67;;;12.50;71.10;;;;;;4996508;28;20049;-87
2022/05/06 06:17:33;;;;;;;28.05;20.25;;;12.50;71.20;;;;;;5006624;28;20089;-88
2022/05/06 06:19:59;;;;;;;27.05;19.23;;;12.60;71.10;;;;;;4979943;28;20042;-87
2022/05/06 06:22:25;;;;;;;24.70;16.88;;;12.60;70.90;;;;;;4990843;28;20073;-88
2022/05/06 06:24:50;;;;;;;23.70;17.27;;;12.60;70.70;;;;;;4979000;28;20512;-86
2022/05/06 06:27:16;;;;;;;26.48;17.15;;;12.70;70.40;;;;;;5002568;28;20053;-87
2022/05/06 06:29:42;;;;;;;25.10;17.05;;;12.70;70.40;;;;;;5002928;28;20087;-87
2022/05/06 06:32:07;;;;;;;27.38;17.13;;;12.80;70.40;;;;;;5003087;28;20038;-87
2022/05/06 06:34:33;;;;;;;24.75;15.75;;;12.80;70.20;;;;;;5004413;28;20042;-87
2022/05/06 06:36:59;;;;;;;24.05;15.43;;;12.80;70.50;;;;;;4981306;28;20400;-86
2022/05/06 06:39:25;;;;;;;23.17;14.90;;;12.90;70.90;;;;;;4998494;28;20157;-86
2022/05/06 06:41:50;;;;;;;19.70;13.60;;;12.90;71.10;;;;;;5009841;28;20089;-86
2022/05/06 06:44:16;;;;;;;21.40;14.40;;;13.00;71.20;;;;;;4981902;28;20057;-85
2022/05/06 06:46:41;;;;;;;19.13;13.90;;;12.90;71.20;;;;;;4989591;28;20047;-86
2022/05/06 06:49:07;;;;;;;23.50;15.48;;;13.00;71.30;;;;;;4970754;28;20053;-85
2022/05/06 06:51:33;;;;;;;24.38;14.75;;;13.00;71.40;;;;;;4995340;28;20078;-85
2022/05/06 06:53:59;;;;;;;20.17;13.48;;;13.00;71.50;;;;;;4980742;28;20054;-87
2022/05/06 06:56:25;;;;;;;20.27;13.45;;;13.00;71.50;;;;;;4977547;28;20550;-86
2022/05/06 06:58:50;;;;;;;25.25;15.52;;;13.00;71.40;;;;;;4993988;28;20484;-84
2022/05/06 07:01:16;;;;;;;25.30;15.98;;;13.00;71.50;;;;;;4998528;28;20049;-84
2022/05/06 07:03:42;;;;;;;20.65;13.93;;;13.10;71.80;;;;;;4996157;28;20129;-84
2022/05/06 07:11:55;;;;;;;23.88;16.80;;;13.10;71.90;;;;;;4992729;28;20046;-85
2022/05/06 07:14:21;;;;;;;;;;;13.20;72.00;;;;;;4992751;28;20046;-84
2022/05/06 07:16:48;;;;;;;22.92;16.40;;;13.20;71.60;;;;;;4994906;28;19921;-84
2022/05/06 07:19:14;;;;;;;24.27;16.95;;;13.30;72.00;;;;;;4995767;28;20054;-91
2022/05/06 07:21:40;;;;;;;22.20;14.50;;;13.30;72.00;;;;;;4998751;28;20043;-83
2022/05/06 07:24:06;;;;;;;24.63;17.17;;;13.40;72.00;;;;;;4996710;28;20065;-82
2022/05/06 07:26:32;;;;;;;25.52;18.65;;;13.50;72.10;;;;;;4996875;28;20133;-85
2022/05/06 07:28:57;;;;;;;21.23;15.82;;;13.60;72.20;;;;;;4998141;28;20134;-85
2022/05/06 07:31:23;;;;;;;23.77;16.65;;;13.70;72.20;;;;;;4998534;28;20454;-84
2022/05/06 07:33:49;;;;;;;23.35;17.08;;;13.70;71.60;;;;;;4997469;28;20050;-84
2022/05/06 07:36:15;;;;;;;21.48;15.85;;;13.90;71.50;;;;;;4998610;28;20052;-85
2022/05/06 07:38:41;;;;;;;19.52;14.93;;;14.10;71.30;;;;;;4998390;28;20117;-84
2022/05/06 07:41:07;;;;;;;19.90;15.82;;;14.20;70.80;;;;;;4996191;28;20050;-85
2022/05/06 07:43:34;;;;;;;19.08;14.25;;;14.30;70.40;;;;;;4998590;28;20057;-84
2022/05/06 07:46:00;;;;;;;16.08;13.15;;;14.30;69.90;;;;;;4998357;28;20089;-84
2022/05/06 07:48:25;;;;;;;16.58;12.63;;;14.40;69.40;;;;;;4998271;28;20037;-85
2022/05/06 07:50:51;;;;;;;17.05;13.80;;;14.50;69.20;;;;;;4997806;28;20070;-84
2022/05/06 07:53:17;;;;;;;17.05;14.65;;;14.60;69.10;;;;;;4997813;28;20050;-85
2022/05/06 07:55:43;;;;;;;17.10;13.85;;;14.60;68.90;;;;;;4998226;28;20053;-84
2022/05/06 07:58:09;;;;;;;16.10;13.05;;;14.70;68.70;;;;;;4998286;28;20038;-84
2022/05/06 08:00:35;;;;;;;14.98;13.38;;;14.80;68.50;;;;;;4997857;28;20389;-85
2022/05/06 08:05:47;;;;;;;17.40;13.45;;;14.90;68.50;;;;;;4978901;28;20055;-85
2022/05/06 08:08:14;;;;;;;16.83;13.65;;;15.00;68.60;;;;;;4995074;28;20069;-84
2022/05/06 08:10:40;;;;;;;16.88;14.38;;;15.00;68.40;;;;;;4998026;28;20052;-85
2022/05/06 08:13:06;;;;;;;13.65;12.25;;;15.00;67.90;;;;;;4996810;28;20080;-84
2022/05/06 08:15:32;;;;;;;15.38;13.18;;;15.10;67.80;;;;;;4997647;28;20549;-84
2022/05/06 08:17:58;;;;;;;13.90;12.50;;;15.10;67.60;;;;;;4997852;28;20039;-84
2022/05/06 08:20:23;;;;;;;15.75;14.05;;;15.20;67.40;;;;;;4997447;28;20046;-85
2022/05/06 08:22:49;;;;;;;14.18;12.55;;;15.30;67.40;;;;;;4998019;28;20093;-85
2022/05/06 08:25:15;;;;;;;13.43;11.75;;;15.30;67.30;;;;;;4997798;28;20085;-85
2022/05/06 08:27:44;;;;;;;12.75;11.45;;;15.40;67.20;;;;;;4997046;28;20054;-84
2022/05/06 08:30:12;;;;;;;13.05;11.45;;;15.60;67.40;;;;;;4998022;28;20050;-84
2022/05/06 08:32:39;;;;;;;11.48;10.27;;;15.70;66.90;;;;;;4996518;28;20088;-85
2022/05/06 08:35:05;;;;;;;12.45;10.50;;;15.90;66.70;;;;;;4997609;28;20043;-84
2022/05/06 08:37:45;;;;;;;10.73;9.63;;;16.10;66.60;;;;;;4997948;28;20042;-85
2022/05/06 08:40:18;;;;;;;13.43;10.48;;;16.40;66.60;;;;;;4996855;28;20046;-85
2022/05/06 08:42:45;;;;;;;10.27;9.27;;;16.70;65.40;;;;;;4998047;28;20061;-85
2022/05/06 08:50:51;;;;;;;8.93;7.97;;;17.30;63.50;;;;;;4997589;28;19921;-85
2022/05/06 08:53:17;;;;;;;10.00;8.95;;;17.50;63.30;;;;;;4996662;28;20516;-85
2022/05/06 08:55:43;;;;;;;9.63;8.68;;;17.70;63.00;;;;;;4996379;28;20078;-86
2022/05/06 08:58:09;;;;;;;9.82;8.93;;;18.00;62.50;;;;;;4998685;28;20127;-85
2022/05/06 09:00:35;;;;;;;9.88;8.88;;;18.20;61.60;;;;;;4998267;28;20049;-86
2022/05/06 09:03:00;;;;;;;7.72;6.90;;;18.50;60.50;;;;;;4997244;28;20374;-86
2022/05/06 09:05:27;;;;;;;7.93;7.13;;;18.80;59.80;;;;;;4997794;28;20053;-87
2022/05/06 09:08:04;;;;;;;8.40;7.57;;;19.10;59.20;;;;;;4996557;28;20482;-88
2022/05/06 09:10:30;;;;;;;8.10;6.53;;;19.40;58.20;;;;;;4995787;28;20058;-87
2022/05/06 09:12:59;;;;;;;9.90;6.88;;;19.70;58.10;;;;;;4997194;28;20053;-87
2022/05/06 09:18:17;;;;;;;7.43;6.63;;;20.40;56.00;;;;;;4996381;28;20050;-86
2022/05/06 09:20:43;;;;;;;6.60;6.00;;;20.60;54.90;;;;;;4997334;28;20073;-87
2022/05/06 09:23:26;;;;;;;5.90;5.30;;;20.80;54.70;;;;;;4997253;28;20043;-86
2022/05/06 09:25:53;;;;;;;7.10;6.40;;;20.90;53.90;;;;;;4997161;28;20494;-87
2022/05/06 09:28:32;;;;;;;5.95;5.13;;;21.00;53.30;;;;;;4996623;28;20281;-86
2022/05/06 09:30:59;;;;;;;5.78;5.18;;;21.20;52.80;;;;;;4997094;28;20046;-86
2022/05/06 09:33:26;;;;;;;6.55;5.55;;;21.20;52.50;;;;;;4996936;28;20406;-86
2022/05/06 09:35:51;;;;;;;6.63;5.35;;;21.40;51.90;;;;;;4996428;28;20486;-86
2022/05/06 09:38:17;;;;;;;5.97;5.38;;;21.40;51.80;;;;;;4995694;28;20050;-86
2022/05/06 09:40:43;;;;;;;5.82;5.22;;;21.50;51.20;;;;;;4996388;28;20506;-87
2022/05/06 09:43:16;;;;;;;6.40;5.50;;;21.50;50.90;;;;;;4996064;28;20038;-87
2022/05/06 09:45:43;;;;;;;5.88;4.75;;;21.60;51.40;;;;;;4997092;28;20038;-87
2022/05/06 09:48:11;;;;;;;5.78;4.90;;;21.60;51.40;;;;;;4996692;28;20097;-87
2022/05/06 09:50:45;;;;;;;6.63;5.20;;;21.80;51.00;;;;;;4996311;28;20050;-86
2022/05/06 09:53:13;;;;;;;5.75;5.20;;;21.90;50.60;;;;;;4996455;28;20056;-86
2022/05/06 09:55:44;;;;;;;6.47;5.38;;;21.90;50.10;;;;;;4996574;28;20042;-87
2022/05/06 09:58:11;;;;;;;5.40;4.85;;;22.00;49.60;;;;;;4996134;28;20034;-86
2022/05/06 10:00:40;;;;;;;5.22;4.72;;;22.00;49.70;;;;;;4996012;28;20053;-86
2022/05/06 10:03:08;;;;;;;5.22;4.72;;;22.10;49.80;;;;;;4996162;28;20053;-87
2022/05/06 10:05:36;;;;;;;5.22;4.50;;;22.10;49.70;;;;;;4995721;28;20046;-88
2022/05/06 10:08:07;;;;;;;4.95;4.32;;;22.20;49.00;;;;;;4996773;28;20054;-87
2022/05/06 10:10:38;;;;;;;5.65;4.80;;;22.30;49.10;;;;;;4996350;28;20105;-87
2022/05/06 10:13:17;;;;;;;5.60;5.07;;;22.30;49.30;;;;;;4995689;28;20050;-87
2022/05/06 10:15:47;;;;;;;5.15;4.65;;;22.40;48.60;;;;;;4996075;28;20057;-87
2022/05/06 10:18:31;;;;;;;4.70;4.20;;;22.50;49.30;;;;;;4996589;28;20065;-88
2022/05/06 10:20:56;;;;;;;5.93;5.28;;;22.60;49.20;;;;;;4994937;28;20401;-87
2022/05/06 10:23:24;;;;;;;5.28;4.40;;;22.70;48.90;;;;;;4996371;28;20038;-87
2022/05/06 10:25:52;;;;;;;4.00;3.60;;;22.80;48.50;;;;;;4996031;28;20393;-88
2022/05/06 10:34:12;;;;;;;3.78;3.42;;;23.10;47.70;;;;;;4995794;28;20054;-88
2022/05/06 10:36:46;;;;;;;4.97;3.55;;;23.10;46.80;;;;;;4995527;28;20038;-88
2022/05/06 10:39:19;;;;;;;;;;;23.20;46.90;;;;;;4995601;28;20046;-88
2022/05/06 10:42:04;;;;;;;4.32;2.33;;;23.20;47.90;;;;;;4996348;28;19982;-88
2022/05/06 10:44:43;;;;;;;3.20;2.60;;;23.30;46.30;;;;;;4995824;28;20039;-88
2022/05/06 10:47:11;;;;;;;2.90;2.20;;;23.30;45.60;;;;;;4993647;28;20397;-88
2022/05/06 10:49:40;;;;;;;6.47;3.03;;;23.40;44.50;;;;;;4994313;28;20057;-88
2022/05/06 10:52:18;;;;;;;4.07;2.60;;;23.50;43.90;;;;;;4995874;28;20097;-88
2022/05/06 10:55:00;;;;;;;3.88;2.72;;;23.60;44.30;;;;;;4995159;28;20077;-88
2022/05/06 10:57:28;;;;;;;3.78;2.40;;;23.60;44.60;;;;;;4995610;28;20136;-87
2022/05/06 11:00:04;;;;;;;2.72;2.10;;;23.70;45.00;;;;;;4994296;28;20165;-88
2022/05/06 11:02:31;;;;;;;4.25;2.47;;;23.80;45.10;;;;;;4995318;28;20038;-88
2022/05/06 11:05:01;;;;;;;4.80;2.42;;;23.90;44.50;;;;;;4995163;28;20065;-88
2022/05/06 11:07:28;;;;;;;4.47;2.65;;;24.00;43.60;;;;;;4995035;28;20046;-89
2022/05/06 11:09:55;;;;;;;3.13;2.47;;;24.10;43.00;;;;;;4995413;28;20069;-88
2022/05/06 11:12:50;;;;;;;4.20;2.63;;;24.20;43.10;;;;;;4995825;28;20397;-88
2022/05/06 11:15:30;;;;;;;6.22;3.22;;;24.30;43.90;;;;;;4994575;28;20061;-88
2022/05/06 11:17:58;;;;;;;4.15;2.70;;;24.30;43.10;;;;;;4995189;28;20046;-88
2022/05/06 11:20:30;;;;;;;3.47;2.60;;;24.40;43.20;;;;;;4997845;28;20154;-89
2022/05/06 11:22:56;;;;;;;3.33;2.72;;;24.50;43.50;;;;;;4995655;28;20425;-88
2022/05/06 11:25:23;;;;;;;4.10;2.88;;;24.50;42.30;;;;;;4995718;28;20069;-89
2022/05/06 11:27:57;;;;;;;3.97;3.15;;;24.60;42.60;;;;;;4995276;28;20050;-89
2022/05/06 11:30:24;;;;;;;4.47;3.00;;;24.60;42.70;;;;;;4994261;28;20054;-89
2022/05/06 11:32:55;;;;;;;3.90;2.83;;;24.70;42.70;;;;;;4996017;28;20496;-90
2022/05/06 11:35:30;;;;;;;4.03;2.65;;;24.80;42.60;;;;;;4995952;28;20052;-89
2022/05/06 11:37:56;;;;;;;3.58;2.60;;;24.80;42.10;;;;;;4996028;28;20074;-90
2022/05/06 11:42:55;;;;;;;3.55;2.58;;;25.00;42.60;;;;;;4996100;28;20125;-89
2022/05/06 11:48:13;;;;;;;4.93;2.95;;;25.10;42.00;;;;;;4994738;28;20051;-89
2022/05/06 11:50:41;;;;;;;3.20;2.10;;;25.20;41.80;;;;;;4994453;28;20050;-89
2022/05/06 11:53:08;;;;;;;3.90;2.45;;;25.20;41.90;;;;;;4996099;28;20553;-89
2022/05/06 11:55:40;;;;;;;3.67;2.72;;;25.30;42.10;;;;;;4996007;28;20050;-88
2022/05/06 11:58:07;;;;;;;4.70;3.25;;;25.30;41.60;;;;;;4996337;28;20389;-88
2022/05/06 12:00:33;;;;;;;4.63;2.88;;;25.30;41.50;;;;;;4996032;28;20499;-89
2022/05/06 12:03:10;;;;;;;4.53;3.83;;;25.30;41.80;;;;;;4995958;28;20096;-88
2022/05/06 12:05:37;;;;;;;4.30;3.85;;;25.30;41.50;;;;;;4995997;28;20038;-89
2022/05/06 12:08:04;;;;;;;5.43;3.78;;;25.30;41.80;;;;;;4999564;28;20061;-89
2022/05/06 12:10:34;;;;;;;5.57;3.88;;;25.30;42.20;;;;;;4999488;28;20046;-89
2022/05/06 12:13:10;;;;;;;5.20;3.17;;;25.30;41.70;;;;;;4984149;28;20114;-90
2022/05/06 12:15:38;;;;;;;5.03;3.55;;;25.30;42.00;;;;;;4981119;28;20508;-88
2022/05/06 12:18:09;;;;;;;5.10;3.00;;;25.30;41.80;;;;;;4980411;28;20050;-88
2022/05/06 12:20:37;;;;;;;5.22;3.17;;;25.30;41.90;;;;;;4980310;28;20042;-88
2022/05/06 12:23:04;;;;;;;5.35;3.80;;;25.30;41.80;;;;;;4962774;28;20513;-89
2022/05/06 12:25:30;;;;;;;7.07;4.00;;;25.30;41.20;;;;;;4981357;28;20129;-89
2022/05/06 12:28:16;;;;;;;5.05;3.22;;;25.30;41.50;;;;;;4981968;28;20082;-88
2022/05/06 12:30:46;;;;;;;5.30;4.10;;;25.30;41.30;;;;;;4986271;28;20046;-87
2022/05/06 12:33:13;;;;;;;5.53;4.38;;;25.20;41.00;;;;;;4987438;28;20050;-88
2022/05/06 12:35:55;;;;;;;5.70;3.65;;;25.10;41.10;;;;;;4968628;28;20070;-89
2022/05/06 12:38:21;;;;;;;5.38;4.28;;;25.20;41.30;;;;;;5000089;28;20022;-89
2022/05/06 12:40:49;;;;;;;6.35;3.60;;;25.10;41.70;;;;;;4985153;28;20031;-88
2022/05/06 12:43:15;;;;;;;6.82;4.10;;;25.20;42.00;;;;;;4985439;28;20037;-87
2022/05/06 12:45:55;;;;;;;5.75;3.95;;;25.20;42.00;;;;;;5000348;28;20034;-87
2022/05/06 12:51:06;;;;;;;6.63;4.55;;;25.30;42.10;;;;;;4983877;28;20051;-87
2022/05/06 12:53:33;;;;;;;9.02;5.97;;;25.40;41.60;;;;;;4998483;28;20057;-86
2022/05/06 12:56:03;;;;;;;6.22;4.22;;;25.40;41.00;;;;;;4992589;28;20050;-87
2022/05/06 12:58:30;;;;;;;6.25;4.55;;;25.30;41.00;;;;;;5005854;28;20069;-87
2022/05/06 13:00:57;;;;;;;7.47;3.92;;;25.40;41.20;;;;;;4989067;28;20383;-86
2022/05/06 13:03:23;;;;;;;6.38;3.83;;;25.40;41.00;;;;;;4985845;28;20054;-85
2022/05/06 13:05:50;;;;;;;6.43;4.40;;;25.40;41.40;;;;;;4966263;28;20058;-86
2022/05/06 13:08:16;;;;;;;5.35;3.10;;;25.40;41.60;;;;;;4987908;28;20140;-86
2022/05/06 13:10:42;;;;;;;4.30;3.05;;;25.40;41.60;;;;;;4998080;28;20088;-88
2022/05/06 13:13:08;;;;;;;5.90;3.95;;;25.40;41.50;;;;;;5000026;28;20129;-86
2022/05/06 13:15:34;;;;;;;6.07;3.15;;;25.50;40.50;;;;;;4999936;28;20097;-86
2022/05/06 13:17:59;;;;;;;4.30;2.95;;;25.50;40.50;;;;;;5000074;28;20034;-85
2022/05/06 13:20:25;;;;;;;6.07;3.20;;;25.50;40.70;;;;;;5001309;28;20076;-86
2022/05/06 13:22:51;;;;;;;4.95;2.85;;;25.50;40.50;;;;;;5000285;28;20050;-85
2022/05/06 13:25:17;;;;;;;5.50;3.47;;;25.50;40.40;;;;;;5017028;28;20054;-86
2022/05/06 13:27:43;;;;;;;5.20;3.45;;;25.40;39.50;;;;;;5001917;28;20038;-86
2022/05/06 13:30:09;;;;;;;5.85;4.03;;;25.40;40.10;;;;;;4997605;28;20082;-86